»·PEaware :: N508DB KEGE-KAPA

N508DB :: KEGE-KAPA

FLIGHT INFORMATION

Flight Status: Arrived
Operator: Privately registered:
United States
More flights under this callsign
Pilot: Chuck O. (4337)
Aircraft: Unknown
(LEG2)
More flights by this aircraft type
Origin: KEGE Eagle Co Regl
United States
Destination: KAPA Centennial
United States
More flights between these airports :: More routes between these airports
Route: +GYPSM6 RLG TOMSN6
File this flight plan on PilotEdge
Remarks:
Altitude:
(Current/Filed)
17,000ft
Speed:
(Current/Filed)
200kts
Departed: 31-Jul-18 06:09 PM
Arrived: 31-Jul-18 07:03 PM
Distance/Time
Traveled:
96nm/0:53
Distance/Time
To Go:
Arrived

Flight Plot

Page will automatically refresh every two minutes.


Map Options




Map Legend


Flown Route
Filed Route
Departure Airport
Arrival Airport
Navaid (VOR, NDB)
Fix

Horizontal Profiles

Position Reports

Time Latitude Longitude Heading Altitude Ground
Speed
31-Jul-18 17:52 39.641644 -106.907957 315 6518ft 0kts
31-Jul-18 17:53 39.641646 -106.907960 315 6518ft 0kts
31-Jul-18 17:54 39.641648 -106.907963 315 6518ft 0kts
31-Jul-18 17:55 39.641651 -106.907966 315 6518ft 0kts
31-Jul-18 17:56 39.641653 -106.907969 315 6518ft 0kts
31-Jul-18 17:57 39.641655 -106.907971 315 6518ft 0kts
31-Jul-18 17:58 39.641657 -106.907974 315 6518ft 0kts
31-Jul-18 17:59 39.641659 -106.907977 315 6518ft 0kts
31-Jul-18 18:00 39.641661 -106.907979 314 6518ft 0kts
31-Jul-18 18:01 39.641663 -106.907982 314 6518ft 0kts
31-Jul-18 18:02 39.641665 -106.907985 314 6518ft 0kts
31-Jul-18 18:03 39.641667 -106.907988 314 6518ft 0kts
31-Jul-18 18:04 39.641669 -106.907990 314 6518ft 0kts
31-Jul-18 18:05 39.641672 -106.907993 314 6518ft 0kts
31-Jul-18 18:06 39.641674 -106.907997 314 6518ft 0kts
31-Jul-18 18:07 39.642664 -106.906823 80 6518ft 27kts
31-Jul-18 18:08 39.643510 -106.900267 45 6518ft 0kts
31-Jul-18 18:09 39.643511 -106.900266 45 6518ft 0kts
31-Jul-18 18:10 39.643491 -106.909791 262 6518ft 87kts
31-Jul-18 18:11 39.636732 -106.948494 223 7150ft 126kts
31-Jul-18 18:12 39.609588 -106.975201 259 7939ft 127kts
31-Jul-18 18:13 39.620117 -107.014239 344 8437ft 134kts
31-Jul-18 18:14 39.654226 -107.031278 334 9309ft 134kts
31-Jul-18 18:15 39.687856 -107.052141 333 10070ft 142kts
31-Jul-18 18:16 39.726883 -107.076661 334 10473ft 165kts
31-Jul-18 18:17 39.768044 -107.077871 44 11309ft 162kts
31-Jul-18 18:18 39.788058 -107.025462 59 12217ft 161kts
31-Jul-18 18:19 39.807614 -106.972959 59 13121ft 163kts
31-Jul-18 18:20 39.827789 -106.918498 59 14027ft 168kts
31-Jul-18 18:21 39.848295 -106.863039 58 14811ft 167kts
31-Jul-18 18:22 39.868067 -106.809558 57 15605ft 160kts
31-Jul-18 18:23 39.887494 -106.756968 57 16278ft 167kts
31-Jul-18 18:24 39.908345 -106.700206 57 16748ft 172kts
31-Jul-18 18:25 39.929002 -106.644059 57 17037ft 180kts
31-Jul-18 18:26 39.951761 -106.581907 58 17005ft 195kts
31-Jul-18 18:27 39.975466 -106.517048 58 17004ft 201kts
31-Jul-18 18:28 39.999822 -106.450419 57 16995ft 204kts
31-Jul-18 18:29 40.040881 -106.402597 33 16990ft 198kts
31-Jul-18 18:30 40.083884 -106.357309 33 16997ft 206kts
31-Jul-18 18:31 40.129354 -106.309396 33 16994ft 208kts
31-Jul-18 18:32 40.174382 -106.261914 33 17000ft 205kts
31-Jul-18 18:33 40.218333 -106.215513 33 17005ft 202kts
31-Jul-18 18:34 40.262183 -106.169138 33 17014ft 201kts
31-Jul-18 18:35 40.305710 -106.123024 33 17025ft 200kts
31-Jul-18 18:36 40.348943 -106.077143 33 17010ft 201kts
31-Jul-18 18:37 40.392562 -106.030765 33 17002ft 201kts
31-Jul-18 18:38 40.435866 -105.984647 33 17004ft 200kts
31-Jul-18 18:39 40.479289 -105.938323 33 17005ft 200kts
31-Jul-18 18:40 40.518564 -105.887298 65 17051ft 208kts
31-Jul-18 18:41 40.519512 -105.809030 85 17069ft 219kts
31-Jul-18 18:42 40.518933 -105.727624 85 16981ft 223kts
31-Jul-18 18:43 40.516899 -105.646618 101 16964ft 224kts
31-Jul-18 18:44 40.475992 -105.585346 134 16953ft 226kts
31-Jul-18 18:45 40.430090 -105.527934 135 16915ft 228kts
31-Jul-18 18:46 40.383920 -105.470565 135 16896ft 228kts
31-Jul-18 18:47 40.338254 -105.413872 135 16999ft 223kts
31-Jul-18 18:48 40.292493 -105.357114 135 16706ft 238kts
31-Jul-18 18:49 40.240982 -105.293447 135 15735ft 268kts
31-Jul-18 18:50 40.186151 -105.225819 135 14736ft 273kts
31-Jul-18 18:51 40.130706 -105.157572 135 13737ft 273kts
31-Jul-18 18:52 40.075271 -105.090136 136 12749ft 275kts
31-Jul-18 18:53 40.018645 -105.023898 137 11752ft 274kts
31-Jul-18 18:54 39.968222 -104.965279 137 11053ft 262kts
31-Jul-18 18:55 39.925225 -104.915676 137 10999ft 232kts
31-Jul-18 18:56 39.869210 -104.875676 165 10372ft 242kts
31-Jul-18 18:57 39.800939 -104.862377 182 9377ft 254kts
31-Jul-18 18:58 39.732957 -104.881231 192 8372ft 245kts
31-Jul-18 18:59 39.668769 -104.890206 180 8005ft 215kts
31-Jul-18 19:00 39.609040 -104.890295 175 7292ft 216kts
31-Jul-18 19:01 39.551771 -104.886228 175 7101ft 192kts
31-Jul-18 19:02 39.529380 -104.862670 40 6898ft 123kts
31-Jul-18 19:03 39.559321 -104.852866 1 5936ft 100kts
31-Jul-18 19:04 39.576381 -104.853582 354 5886ft 33kts
31-Jul-18 19:05 39.578942 -104.853164 90 5886ft 0kts
31-Jul-18 19:06 39.579050 -104.849501 96 5886ft 18kts
31-Jul-18 19:07 39.577932 -104.848405 93 5886ft 0kts
31-Jul-18 19:08 39.577932 -104.848405 93 5886ft 0kts
31-Jul-18 19:09 39.577932 -104.848405 93 5886ft 0kts
31-Jul-18 19:10 39.577932 -104.848405 93 5886ft 0kts
31-Jul-18 19:11 39.577932 -104.848405 93 5886ft 0kts
31-Jul-18 19:12 39.577932 -104.848405 93 5886ft 0kts
31-Jul-18 19:13 39.577932 -104.848405 93 5886ft 0kts
31-Jul-18 19:14 39.577932 -104.848405 93 5886ft 0kts
31-Jul-18 19:15 39.577932 -104.848405 93 5886ft 0kts
31-Jul-18 19:16 39.577932 -104.848405 93 5886ft 0kts
31-Jul-18 19:17 39.577932 -104.848405 93 5886ft 0kts
31-Jul-18 19:18 39.577932 -104.848405 93 5886ft 0kts

Navigation Log

Ident Type
Flight plan parsing failed, navigation log unavailable